Victor, South Dakota
Current Conditions -  °F | °C
As of 3:16 AM on Wednesday 26 Nov 2014 (Local Time) from KETH Reporting Station
Light Snow Light Snow  
Wind Chill:   Ceiling: 2200
Heat Index: 19°   Visibility: 4mi
Dew Point: 16°   Wind: 14mph
Humidity: 86%   Direction: 360°N
Pressure: 30.1"   Gusts: NA
Location:  45.8782°N, 96.7131°W
Report Text: KETH 260916Z AUTO 36012KT 4SM -SN SCT016 BKN022 OVC030 M07/M09 A3010 RMK AO2
Loading
Personal Weather Stations






























Interactive Weather Map New forecast layout! Learn more

10-Day Weather Forecast

Advertisements
Track Severe Weather on mobile